EST,Max TemperatureF,Mean TemperatureF,Min TemperatureF,Max Dew PointF,MeanDew PointF,Min DewpointF,Max Humidity, Mean Humidity, Min Humidity, Max Sea Level PressureIn, Mean Sea Level PressureIn, Min Sea Level PressureIn, Max VisibilityMiles, Mean VisibilityMiles, Min VisibilityMiles, Max Wind SpeedMPH, Mean Wind SpeedMPH, Max Gust SpeedMPH,PrecipitationIn, CloudCover, Events, WindDirDegrees
2014-1-1,30,21,12,16,9,4,78,54,36,30.38,30.33,30.21,10,10,10,13,6,23,0.00,2,,265
2014-1-2,30,24,12,27,23,6,86,81,60,30.34,30.06,29.74,9,2,0,16,5,31,0.43,8,Fog-Snow,37
2014-1-3,18,10,-2,5,-1,-12,79,65,37,30.42,29.88,29.62,10,5,0,18,13,31,0.14,5,Snow,339
2014-1-4,30,10,-11,21,4,-18,80,65,35,30.53,30.40,30.29,10,10,8,15,3,23,0.00,0,,210
2014-1-5,48,29,12,44,30,5,89,82,53,30.33,30.17,29.92,10,4,1,10,2,,0.12,6,Rain,144
2014-1-6,62,47,30,57,47,13,93,84,47,29.91,29.56,29.33,10,5,0,23,10,39,0.39,8,Fog-Rain,182
2014-1-7,30,20,10,21,1,-11,81,47,31,30.27,29.87,29.55,10,8,1,23,11,34,0.01,3,Snow,273
2014-1-8,26,17,8,5,-1,-9,71,46,32,30.48,30.41,30.29,10,10,10,10,6,,0.00,1,,236
2014-1-9,34,22,10,9,6,4,80,53,31,30.65,30.56,30.44,10,10,9,10,4,,0.00,1,,264
2014-1-10,37,24,10,33,25,4,89,83,74,30.61,30.44,30.27,10,3,0,4,0,,0.09,7,Fog-Rain-Snow,270
2014-1-11,64,50,37,59,46,33,93,85,75,30.25,29.85,29.33,10,5,0,23,5,38,0.86,8,Fog-Rain,180
2014-1-12,46,41,34,27,24,22,61,52,46,29.98,29.59,29.32,10,10,5,18,9,29,0.16,5,Rain,270
2014-1-13,53,41,32,44,31,22,83,66,44,30.13,30.05,29.93,10,10,10,15,7,24,0.00,0,,208
2014-1-14,52,48,45,48,46,41,100,90,71,29.91,29.72,29.61,10,7,1,12,6,23,0.72,7,Rain,237
2014-1-15,48,39,30,40,33,28,96,89,61,30.03,29.94,29.79,10,4,0,8,2,,0.00,2,Fog,213
2014-1-16,41,38,35,39,37,33,97,94,92,29.92,29.88,29.83,5,2,0,5,1,,0.00,8,Fog,355
2014-1-17,45,36,28,38,32,23,97,84,42,29.99,29.93,29.91,10,5,0,12,2,20,0.00,5,Fog,191
2014-1-18,37,34,30,36,33,28,96,91,89,29.91,29.69,29.59,10,5,1,8,3,,0.63,8,Rain-Snow,318
2014-1-19,37,34,30,32,25,20,93,74,50,29.72,29.67,29.58,10,9,1,16,7,29,0.00,6,Snow,235
2014-1-20,45,39,30,27,22,8,67,52,40,29.84,29.62,29.52,10,10,10,17,9,28,0.00,2,,253
2014-1-21,28,21,14,10,7,-3,80,68,35,30.04,29.93,29.80,10,4,0,13,8,23,0.13,6,Snow,353
2014-1-22,19,13,6,8,2,-7,81,65,37,29.89,29.72,29.60,10,5,1,18,12,29,0.03,4,Snow,335
2014-1-23,21,10,-2,-3,-5,-9,76,50,34,30.17,30.04,29.90,10,10,10,9,4,,0.00,1,,270
2014-1-24,19,11,3,2,-5,-8,73,50,31,30.27,30.19,30.09,10,10,10,12,7,20,0.00,0,,261
2014-1-25,39,28,17,28,21,4,85,68,54,30.05,29.56,29.36,10,8,2,20,10,31,0.00,7,Snow,227
2014-1-26,26,22,17,16,5,-4,69,53,35,29.90,29.73,29.37,10,10,10,16,9,26,0.00,3,,247
2014-1-27,50,37,23,39,22,-1,82,58,29,29.99,29.74,29.57,10,10,10,17,8,31,0.00,6,,236
2014-1-28,21,18,14,-1,-8,-14,38,31,23,30.31,30.22,30.00,10,10,10,16,8,28,0.00,2,,291
2014-1-29,26,20,14,11,5,-5,84,61,29,30.23,30.12,30.00,10,6,1,10,3,16,0.06,5,Snow,292
2014-1-30,28,16,3,10,3,-3,84,58,36,30.44,30.34,30.21,10,10,10,10,3,,0.00,0,,226
2014-1-31,43,28,12,25,18,9,88,65,31,30.21,30.10,30.04,10,10,9,12,2,17,0.00,5,,250